| time (UTC) | temp F | wind direction | speed knots | gust knots | rain 1hr in | rain 24hr in | rain mn in | humidity % | barometer mb |
| 20260507170127 | 63 | 222 | 0.0 | 0.0 | 0.00 | 0.00 | 0.00 | 40 | 1010.2 |
| 20260507165622 | 64 | 225 | 1.7 | 1.7 | 0.00 | 0.00 | 0.00 | 37 | 1010.4 |
| 20260507165119 | 64 | 228 | 0.9 | 0.9 | 0.00 | 0.00 | 0.00 | 38 | 1010.4 |
| 20260507164615 | 65 | 254 | 1.7 | 2.6 | 0.00 | 0.00 | 0.00 | 37 | 1010.2 |
| 20260507164112 | 62 | 226 | 0.0 | 0.9 | 0.00 | 0.00 | 0.00 | 42 | 1010.4 |
| 20260507163610 | 61 | 227 | 0.0 | 0.0 | 0.00 | 0.00 | 0.00 | 41 | 1010.7 |
| 20260507163108 | 63 | 196 | 1.7 | 1.7 | 0.00 | 0.00 | 0.00 | 38 | 1010.7 |
| 20260507162607 | 61 | 224 | 0.9 | 0.9 | 0.00 | 0.00 | 0.00 | 38 | 1010.8 |
| 20260507162105 | 61 | 229 | 1.7 | 1.7 | 0.00 | 0.00 | 0.00 | 39 | 1010.9 |
| 20260507161600 | 60 | 222 | 0.9 | 1.7 | 0.00 | 0.00 | 0.00 | 45 | 1010.9 |
| 20260507161057 | 60 | 223 | 0.0 | 0.9 | 0.00 | 0.00 | 0.00 | 46 | 1010.7 |
| 20260507160554 | 59 | 217 | 0.0 | 0.9 | 0.00 | 0.00 | 0.00 | 51 | 1010.9 |
| 20260507160050 | 57 | 233 | 0.0 | 0.0 | 0.00 | 0.00 | 0.00 | 51 | 1011.0 |
| 20260507155545 | 57 | 232 | 0.0 | 0.9 | 0.00 | 0.00 | 0.00 | 54 | 1011.2 |
| 20260507155043 | 55 | 334 | 2.6 | 2.6 | 0.00 | 0.00 | 0.00 | 54 | 1011.1 |
| 20260507154540 | 56 | 228 | 0.0 | 0.0 | 0.00 | 0.00 | 0.00 | 62 | 1011.1 |
| 20260507154038 | 57 | 222 | 0.0 | 0.0 | 0.00 | 0.00 | 0.00 | 58 | 1011.1 |
| 20260507153534 | 54 | 232 | 0.0 | 0.0 | 0.00 | 0.00 | 0.00 | 60 | 1011.2 |
| 20260507153030 | 52 | 166 | 0.9 | 1.7 | 0.00 | 0.00 | 0.00 | 64 | 1011.3 |
| 20260507152526 | 53 | 214 | 0.0 | 0.0 | 0.00 | 0.00 | 0.00 | 66 | 1011.2 |
| 20260507152022 | 54 | 224 | 0.0 | 0.0 | 0.00 | 0.00 | 0.00 | 63 | 1011.3 |
| 20260507151518 | 57 | 225 | 0.0 | 0.0 | 0.00 | 0.00 | 0.00 | 61 | 1011.2 |
| 20260507151016 | 57 | 226 | 0.0 | 0.0 | 0.00 | 0.00 | 0.00 | 69 | 1011.2 |
| 20260507150512 | 53 | 229 | 0.0 | 0.0 | 0.00 | 0.00 | 0.00 | 81 | 1011.5 |
| 20260507150009 | 50 | 227 | 0.9 | 0.9 | 0.00 | 0.00 | 0.00 | 97 | 1011.2 |
| 20260507145504 | 49 | 23 | 0.9 | 1.7 | 0.00 | 0.00 | 0.00 | 99 | 1011.4 |
| 20260507145001 | 49 | 235 | 0.0 | 0.0 | 0.00 | 0.00 | 0.00 | 99 | 1011.6 |
| 20260507144458 | 46 | 226 | 0.0 | 0.0 | 0.00 | 0.00 | 0.00 | 99 | 1011.8 |
| 20260507143955 | 46 | 215 | 0.0 | 0.9 | 0.00 | 0.00 | 0.00 | 99 | 1011.6 |
| 20260507143453 | 46 | 226 | 0.0 | 0.0 | 0.00 | 0.00 | 0.00 | 99 | 1011.6 |
| 20260507142949 | 46 | 226 | 0.0 | 0.0 | 0.00 | 0.00 | 0.00 | 99 | 1011.7 |
| 20260507142445 | 45 | 224 | 0.0 | 0.0 | 0.00 | 0.00 | 0.00 | 99 | 1011.6 |
| 20260507141943 | 45 | 227 | 0.0 | 0.0 | 0.00 | 0.00 | 0.00 | 99 | 1011.6 |
| 20260507141438 | 47 | 226 | 0.0 | 0.0 | 0.00 | 0.00 | 0.00 | 99 | 1011.4 |
| 20260507140935 | 48 | 226 | 0.0 | 0.0 | 0.00 | 0.00 | 0.00 | 99 | 1011.8 |
| 20260507140432 | 48 | 229 | 0.0 | 0.0 | 0.00 | 0.00 | 0.00 | 99 | 1011.5 |
| 20260507135930 | 48 | 207 | 0.0 | 0.0 | 0.00 | 0.00 | 0.00 | 99 | 1011.5 |
| 20260507135426 | 49 | 205 | 0.0 | 0.0 | 0.00 | 0.00 | 0.00 | 99 | 1011.6 |
| 20260507134925 | 49 | 235 | 0.0 | 0.0 | 0.00 | 0.00 | 0.00 | 99 | 1011.5 |
| 20260507134421 | 48 | 228 | 0.0 | 0.0 | 0.00 | 0.00 | 0.00 | 99 | 1011.5 |
| 20260507133917 | 47 | 228 | 0.0 | 0.0 | 0.00 | 0.00 | 0.00 | 99 | 1011.6 |
| 20260507133413 | 47 | 227 | 0.0 | 0.0 | 0.00 | 0.00 | 0.00 | 99 | 1011.7 |
| 20260507132911 | 47 | 226 | 0.0 | 0.0 | 0.00 | 0.00 | 0.00 | 99 | 1011.6 |
| 20260507132407 | 46 | 228 | 0.0 | 0.0 | 0.00 | 0.00 | 0.00 | 99 | 1011.7 |
| 20260507131905 | 47 | 222 | 0.0 | 0.0 | 0.00 | 0.00 | 0.00 | 99 | 1011.8 |
| 20260507131400 | 48 | 225 | 0.0 | 0.0 | 0.00 | 0.00 | 0.00 | 99 | 1011.9 |
| 20260507130857 | 46 | 226 | 0.0 | 0.0 | 0.00 | 0.00 | 0.00 | 99 | 1011.9 |
| 20260507130354 | 45 | 222 | 0.0 | 0.0 | 0.00 | 0.00 | 0.00 | 99 | 1012.0 |
| 20260507125853 | 45 | 222 | 0.0 | 0.0 | 0.00 | 0.00 | 0.00 | 99 | 1011.7 |
| 20260507125350 | 45 | 222 | 0.0 | 0.0 | 0.00 | 0.00 | 0.00 | 99 | 1011.9 |
| 20260507124848 | 45 | 222 | 0.0 | 0.0 | 0.00 | 0.00 | 0.00 | 99 | 1012.0 |
| 20260507124344 | 45 | 222 | 0.0 | 0.0 | 0.00 | 0.00 | 0.00 | 99 | 1012.4 |
| 20260507123843 | 45 | 222 | 0.0 | 0.0 | 0.00 | 0.00 | 0.00 | 99 | 1011.9 |
| 20260507123339 | 44 | 223 | 0.0 | 0.0 | 0.00 | 0.00 | 0.00 | 99 | 1012.1 |
| 20260507122836 | 45 | 223 | 0.0 | 0.0 | 0.00 | 0.00 | 0.00 | 99 | 1012.0 |
| 20260507122331 | 45 | 226 | 0.0 | 0.0 | 0.00 | 0.00 | 0.00 | 99 | 1011.8 |
| 20260507121828 | 44 | 229 | 0.0 | 0.0 | 0.00 | 0.00 | 0.00 | 99 | 1011.7 |
| 20260507121323 | 43 | 223 | 0.0 | 0.0 | 0.00 | 0.00 | 0.00 | 99 | 1012.0 |
| 20260507120820 | 43 | 223 | 0.0 | 0.0 | 0.00 | 0.00 | 0.00 | 99 | 1011.7 |
| 20260507120316 | 43 | 223 | 0.0 | 0.0 | 0.00 | 0.00 | 0.00 | 99 | 1011.8 |
| 20260507115812 | 43 | 223 | 0.0 | 0.0 | 0.00 | 0.00 | 0.00 | 99 | 1011.9 |
| 20260507115308 | 42 | 223 | 0.0 | 0.0 | 0.00 | 0.00 | 0.00 | 99 | 1011.8 |
| 20260507114804 | 42 | 223 | 0.0 | 0.0 | 0.00 | 0.00 | 0.00 | 99 | 1012.0 |
| 20260507114301 | 42 | 223 | 0.0 | 0.9 | 0.00 | 0.00 | 0.00 | 99 | 1011.9 |
| 20260507113800 | 42 | 223 | 0.0 | 0.0 | 0.00 | 0.00 | 0.00 | 99 | 1012.1 |
| 20260507113256 | 41 | 222 | 0.0 | 0.0 | 0.00 | 0.00 | 0.00 | 99 | 1012.0 |
| 20260507112754 | 41 | 222 | 0.0 | 0.0 | 0.00 | 0.00 | 0.00 | 99 | 1011.9 |
| 20260507112251 | 41 | 222 | 0.0 | 0.0 | 0.00 | 0.00 | 0.00 | 99 | 1011.8 |
| 20260507111749 | 40 | 222 | 0.0 | 0.0 | 0.00 | 0.00 | 0.00 | 99 | 1011.8 |
| 20260507111244 | 39 | 221 | 0.0 | 0.0 | 0.00 | 0.00 | 0.00 | 99 | 1012.1 |
| 20260507110741 | 39 | 221 | 0.0 | 0.0 | 0.00 | 0.00 | 0.00 | 99 | 1011.9 |
| 20260507110237 | 38 | 222 | 0.0 | 0.0 | 0.00 | 0.00 | 0.00 | 99 | 1012.0 |
| 20260507105734 | 38 | 222 | 0.0 | 0.9 | 0.00 | 0.00 | 0.00 | 99 | 1012.1 |
| 20260507105230 | 38 | 222 | 0.0 | 0.0 | 0.00 | 0.00 | 0.00 | 99 | 1012.2 |
| 20260507104727 | 37 | 222 | 0.0 | 0.0 | 0.00 | 0.00 | 0.00 | 99 | 1012.2 |
| 20260507104224 | 37 | 222 | 0.0 | 0.0 | 0.00 | 0.00 | 0.00 | 99 | 1012.4 |
| 20260507103720 | 37 | 222 | 0.0 | 0.0 | 0.00 | 0.00 | 0.00 | 99 | 1011.8 |
| 20260507103216 | 36 | 222 | 0.0 | 0.0 | 0.00 | 0.00 | 0.00 | 99 | 1011.8 |
| 20260507102713 | 36 | 222 | 0.0 | 0.0 | 0.00 | 0.00 | 0.00 | 99 | 1011.7 |
| 20260507102209 | 36 | 222 | 0.0 | 0.0 | 0.00 | 0.00 | 0.00 | 99 | 1011.6 |
| 20260507101706 | 36 | 222 | 0.0 | 0.0 | 0.00 | 0.00 | 0.00 | 99 | 1011.6 |
| 20260507101201 | 35 | 222 | 0.0 | 0.0 | 0.00 | 0.00 | 0.00 | 99 | 1011.6 |
| 20260507100658 | 35 | 222 | 0.0 | 0.0 | 0.00 | 0.00 | 0.00 | 99 | 1011.7 |
| 20260507100157 | 35 | 222 | 0.0 | 0.0 | 0.00 | 0.00 | 0.00 | 99 | 1011.9 |
| 20260507095654 | 35 | 222 | 0.0 | 0.0 | 0.00 | 0.00 | 0.00 | 99 | 1012.0 |
| 20260507095151 | 35 | 222 | 0.0 | 0.0 | 0.00 | 0.00 | 0.00 | 99 | 1011.7 |
| 20260507094647 | 36 | 222 | 0.0 | 0.0 | 0.00 | 0.00 | 0.00 | 99 | 1011.6 |
| 20260507094144 | 36 | 222 | 0.0 | 0.0 | 0.00 | 0.00 | 0.00 | 99 | 1011.7 |
| 20260507093642 | 36 | 222 | 0.0 | 0.0 | 0.00 | 0.00 | 0.00 | 99 | 1011.7 |
| 20260507093141 | 36 | 222 | 0.0 | 0.0 | 0.00 | 0.00 | 0.00 | 99 | 1012.0 |
| 20260507092637 | 37 | 222 | 0.0 | 0.0 | 0.00 | 0.00 | 0.00 | 99 | 1011.9 |
| 20260507092133 | 37 | 222 | 0.0 | 0.0 | 0.00 | 0.00 | 0.00 | 99 | 1012.0 |
| 20260507091630 | 37 | 222 | 0.0 | 0.0 | 0.00 | 0.00 | 0.00 | 99 | 1011.9 |
| 20260507091125 | 37 | 222 | 0.0 | 0.0 | 0.00 | 0.00 | 0.00 | 99 | 1011.8 |
| 20260507090621 | 37 | 222 | 0.0 | 0.0 | 0.00 | 0.00 | 0.00 | 99 | 1011.9 |
| 20260507090119 | 37 | 222 | 0.0 | 0.0 | 0.00 | 0.00 | 0.00 | 99 | 1011.8 |
| 20260507085616 | 38 | 222 | 0.0 | 0.0 | 0.00 | 0.00 | 0.00 | 99 | 1011.6 |
| 20260507085112 | 38 | 221 | 0.0 | 0.0 | 0.00 | 0.00 | 0.00 | 99 | 1011.9 |
| 20260507084609 | 38 | 221 | 0.0 | 0.0 | 0.00 | 0.00 | 0.00 | 99 | 1011.8 |
| 20260507084106 | 38 | 221 | 0.0 | 0.0 | 0.00 | 0.00 | 0.00 | 99 | 1011.6 |
| 20260507083602 | 38 | 221 | 0.0 | 0.0 | 0.00 | 0.00 | 0.00 | 99 | 1011.6 |
| 20260507083100 | 38 | 222 | 0.0 | 0.0 | 0.00 | 0.00 | 0.00 | 99 | 1011.5 |
| 20260507082555 | 39 | 222 | 0.0 | 0.0 | 0.00 | 0.00 | 0.00 | 99 | 1011.8 |
| 20260507082052 | 39 | 221 | 0.0 | 0.0 | 0.00 | 0.00 | 0.00 | 99 | 1011.9 |
| 20260507081548 | 39 | 222 | 0.0 | 0.0 | 0.00 | 0.00 | 0.00 | 99 | 1011.8 |
| 20260507081046 | 39 | 221 | 0.0 | 0.0 | 0.00 | 0.00 | 0.00 | 99 | 1011.8 |
| 20260507080541 | 39 | 221 | 0.0 | 0.0 | 0.00 | 0.00 | 0.00 | 99 | 1011.5 |
| 20260507080038 | 40 | 221 | 0.0 | 0.0 | 0.00 | 0.00 | 0.00 | 99 | 1011.7 |
| 20260507075533 | 40 | 221 | 0.0 | 0.0 | 0.00 | 0.00 | 0.00 | 99 | 1011.5 |
| 20260507075030 | 40 | 222 | 0.0 | 0.0 | 0.00 | 0.00 | 0.00 | 99 | 1011.5 |
| 20260507074526 | 41 | 222 | 0.0 | 0.0 | 0.00 | 0.00 | 0.00 | 99 | 1011.4 |
| 20260507074025 | 41 | 222 | 0.0 | 0.0 | 0.00 | 0.00 | 0.00 | 99 | 1011.0 |
| 20260507073521 | 41 | 222 | 0.0 | 0.0 | 0.00 | 0.00 | 0.00 | 99 | 1011.2 |
| 20260507073018 | 41 | 222 | 0.0 | 0.0 | 0.00 | 0.00 | 0.00 | 99 | 1010.8 |
| 20260507072515 | 41 | 222 | 0.0 | 0.0 | 0.00 | 0.00 | 0.00 | 99 | 1010.7 |
| 20260507072012 | 42 | 222 | 0.0 | 0.0 | 0.00 | 0.00 | 0.00 | 99 | 1010.9 |
| 20260507071509 | 42 | 222 | 0.0 | 0.0 | 0.00 | 0.00 | 0.00 | 99 | 1011.1 |
| 20260507071006 | 42 | 221 | 0.0 | 0.0 | 0.00 | 0.00 | 0.00 | 99 | 1010.7 |
| 20260507070503 | 42 | 222 | 0.0 | 0.0 | 0.00 | 0.00 | 0.00 | 99 | 1010.8 |
| 20260507070000 | 42 | 222 | 0.0 | 0.0 | 0.00 | 0.00 | 0.00 | 99 | 1010.5 |
| 20260507065456 | 42 | 222 | 0.0 | 0.0 | 0.00 | 0.00 | 0.00 | 99 | 1011.2 |
| 20260507064954 | 42 | 222 | 0.0 | 0.0 | 0.00 | 0.00 | 0.00 | 99 | 1011.0 |
| 20260507064452 | 42 | 222 | 0.0 | 0.0 | 0.00 | 0.00 | 0.00 | 99 | 1010.8 |
| 20260507063949 | 42 | 222 | 0.0 | 0.0 | 0.00 | 0.00 | 0.00 | 99 | 1011.1 |
| 20260507063446 | 42 | 222 | 0.0 | 0.0 | 0.00 | 0.00 | 0.00 | 99 | 1011.1 |
| 20260507062943 | 42 | 221 | 0.0 | 0.0 | 0.00 | 0.00 | 0.00 | 99 | 1011.1 |
| 20260507062440 | 42 | 222 | 0.0 | 0.0 | 0.00 | 0.00 | 0.00 | 99 | 1010.9 |
| 20260507061937 | 42 | 222 | 0.0 | 0.0 | 0.00 | 0.00 | 0.00 | 99 | 1010.7 |
| 20260507061436 | 42 | 222 | 0.0 | 0.0 | 0.00 | 0.00 | 0.00 | 99 | 1010.7 |
| 20260507060934 | 42 | 223 | 0.0 | 0.0 | 0.00 | 0.00 | 0.00 | 99 | 1011.5 |
| 20260507060430 | 42 | 222 | 0.0 | 0.0 | 0.00 | 0.00 | 0.00 | 99 | 1011.4 |
| 20260507055927 | 42 | 222 | 0.0 | 0.0 | 0.00 | 0.00 | 0.00 | 99 | 1011.1 |
| 20260507055423 | 42 | 225 | 0.0 | 0.0 | 0.00 | 0.00 | 0.00 | 99 | 1011.0 |
| 20260507054919 | 41 | 222 | 0.0 | 0.0 | 0.00 | 0.00 | 0.00 | 99 | 1010.7 |
| 20260507054415 | 41 | 222 | 0.0 | 0.0 | 0.00 | 0.00 | 0.00 | 99 | 1011.1 |
| 20260507053913 | 41 | 222 | 0.0 | 0.0 | 0.00 | 0.00 | 0.00 | 99 | 1011.0 |
| 20260507053410 | 41 | 222 | 0.0 | 0.0 | 0.00 | 0.00 | 0.00 | 99 | 1010.9 |
| 20260507052909 | 42 | 223 | 0.0 | 0.0 | 0.00 | 0.00 | 0.00 | 99 | 1010.8 |
| 20260507052406 | 42 | 222 | 0.0 | 0.9 | 0.00 | 0.00 | 0.00 | 99 | 1011.1 |
| 20260507051903 | 42 | 222 | 0.0 | 0.0 | 0.00 | 0.00 | 0.00 | 99 | 1011.1 |
| 20260507051400 | 42 | 219 | 0.0 | 0.0 | 0.00 | 0.00 | 0.00 | 99 | 1011.0 |
| 20260507050857 | 42 | 222 | 0.0 | 0.0 | 0.00 | 0.00 | 0.00 | 99 | 1010.8 |
| 20260507050354 | 42 | 225 | 0.0 | 0.0 | 0.00 | 0.00 | 0.00 | 99 | 1010.8 |
| 20260507045851 | 42 | 226 | 0.0 | 0.0 | 0.00 | 0.00 | 0.00 | 99 | 1010.7 |
| 20260507045348 | 42 | 222 | 0.0 | 0.0 | 0.00 | 0.00 | 0.00 | 99 | 1010.7 |
| 20260507044845 | 42 | 222 | 0.0 | 0.0 | 0.00 | 0.00 | 0.00 | 99 | 1010.8 |
| 20260507044341 | 42 | 223 | 0.0 | 0.0 | 0.00 | 0.00 | 0.00 | 99 | 1010.8 |
| 20260507043837 | 43 | 223 | 0.0 | 0.0 | 0.00 | 0.00 | 0.00 | 99 | 1010.9 |
| 20260507043334 | 43 | 223 | 0.0 | 0.0 | 0.00 | 0.00 | 0.00 | 99 | 1010.5 |
| 20260507042830 | 43 | 224 | 0.0 | 0.9 | 0.00 | 0.00 | 0.00 | 99 | 1010.4 |
| 20260507042325 | 43 | 225 | 0.0 | 0.0 | 0.00 | 0.00 | 0.00 | 99 | 1010.3 |
| 20260507041823 | 43 | 225 | 0.0 | 0.0 | 0.00 | 0.00 | 0.00 | 99 | 1010.1 |
| 20260507041319 | 43 | 225 | 0.0 | 0.0 | 0.00 | 0.00 | 0.00 | 99 | 1010.2 |
| 20260507040816 | 43 | 222 | 0.0 | 0.0 | 0.00 | 0.00 | 0.00 | 99 | 1010.4 |
| 20260507040312 | 43 | 223 | 0.0 | 0.0 | 0.00 | 0.00 | 0.00 | 99 | 1010.3 |
| 20260507035808 | 43 | 223 | 0.0 | 0.0 | 0.00 | 0.81 | 0.81 | 99 | 1010.7 |
| 20260507035306 | 44 | 221 | 0.0 | 0.0 | 0.05 | 0.81 | 0.81 | 99 | 1011.0 |
| 20260507034802 | 44 | 225 | 0.9 | 0.9 | 0.05 | 0.81 | 0.81 | 99 | 1010.8 |
| 20260507034258 | 44 | 216 | 0.0 | 0.0 | 0.05 | 0.81 | 0.81 | 99 | 1010.8 |
| 20260507033757 | 44 | 192 | 0.0 | 0.9 | 0.00 | 0.80 | 0.80 | 99 | 1011.0 |
| 20260507033254 | 44 | 222 | 0.0 | 0.0 | 0.00 | 0.80 | 0.80 | 99 | 1010.9 |
| 20260507032751 | 44 | 224 | 0.0 | 0.0 | 0.00 | 0.80 | 0.80 | 99 | 1010.9 |
| 20260507032247 | 44 | 223 | 0.0 | 0.0 | 0.00 | 0.80 | 0.80 | 99 | 1010.8 |
| 20260507031743 | 44 | 225 | 0.0 | 0.9 | 0.00 | 0.80 | 0.80 | 99 | 1011.1 |
| 20260507031241 | 44 | 223 | 0.0 | 0.0 | 0.00 | 0.80 | 0.80 | 99 | 1010.8 |
| 20260507030737 | 44 | 224 | 0.0 | 0.9 | 0.00 | 0.80 | 0.80 | 99 | 1010.8 |
| 20260507030235 | 44 | 222 | 0.0 | 0.0 | 0.00 | 0.80 | 0.80 | 99 | 1010.8 |
| 20260507025732 | 44 | 223 | 0.0 | 0.0 | 0.07 | 0.80 | 0.80 | 99 | 1010.9 |
| 20260507025229 | 44 | 233 | 1.7 | 1.7 | 0.07 | 0.80 | 0.80 | 99 | 1011.1 |
| 20260507024727 | 44 | 230 | 0.0 | 0.0 | 0.00 | 0.79 | 0.79 | 99 | 1011.2 |
| 20260507024224 | 44 | 224 | 0.0 | 0.0 | 0.00 | 0.79 | 0.79 | 99 | 1011.1 |
| 20260507023719 | 44 | 221 | 0.9 | 1.7 | 0.00 | 0.79 | 0.79 | 99 | 1011.3 |
| 20260507023216 | 44 | 224 | 0.0 | 0.9 | 0.00 | 0.79 | 0.79 | 99 | 1011.1 |
| 20260507022714 | 44 | 215 | 0.0 | 0.0 | 0.00 | 0.79 | 0.79 | 99 | 1011.1 |
| 20260507022210 | 44 | 201 | 0.0 | 0.0 | 0.00 | 0.79 | 0.79 | 99 | 1011.3 |
| 20260507021706 | 44 | 171 | 2.6 | 2.6 | 0.00 | 0.79 | 0.79 | 99 | 1011.0 |
| 20260507021201 | 45 | 228 | 0.0 | 0.0 | 0.00 | 0.79 | 0.79 | 99 | 1011.2 |
| 20260507020701 | 45 | 241 | 0.0 | 0.0 | 0.05 | 0.79 | 0.79 | 99 | 1011.0 |
| 20260507020156 | 45 | 223 | 0.9 | 0.9 | 0.05 | 0.79 | 0.79 | 99 | 1010.9 |
| 20260507015654 | 45 | 219 | 0.9 | 0.9 | 0.07 | 0.78 | 0.78 | 99 | 1010.9 |
| 20260507015151 | 45 | 225 | 0.0 | 0.9 | 0.07 | 0.78 | 0.78 | 99 | 1011.2 |
| 20260507014648 | 45 | 223 | 0.0 | 0.0 | 0.14 | 0.78 | 0.78 | 99 | 1011.0 |
| 20260507014144 | 45 | 226 | 0.0 | 0.0 | 0.07 | 0.77 | 0.77 | 99 | 1011.0 |
| 20260507013641 | 46 | 223 | 0.0 | 0.0 | 0.05 | 0.76 | 0.76 | 99 | 1010.8 |
| 20260507013138 | 46 | 223 | 0.0 | 0.9 | 0.05 | 0.76 | 0.76 | 99 | 1010.8 |
| 20260507012635 | 46 | 223 | 0.0 | 0.0 | 0.12 | 0.76 | 0.76 | 99 | 1010.7 |
| 20260507012130 | 46 | 223 | 0.0 | 0.0 | 0.19 | 0.75 | 0.75 | 99 | 1010.4 |
| 20260507011629 | 46 | 228 | 0.9 | 0.9 | 0.12 | 0.74 | 0.74 | 99 | 1010.4 |
| 20260507011125 | 46 | 231 | 0.9 | 0.9 | 0.12 | 0.73 | 0.73 | 99 | 1010.2 |
| 20260507010620 | 46 | 222 | 0.9 | 0.9 | 0.05 | 0.72 | 0.72 | 99 | 1010.2 |
| 20260507010116 | 47 | 222 | 0.0 | 0.0 | 0.07 | 0.71 | 0.71 | 99 | 1010.0 |
| 20260507005613 | 47 | 223 | 0.0 | 0.0 | 0.12 | 0.71 | 0.71 | 99 | 1010.1 |
| 20260507005109 | 47 | 225 | 0.0 | 0.9 | 0.05 | 0.70 | 0.70 | 99 | 1010.1 |
| 20260507004606 | 47 | 226 | 0.9 | 1.7 | 0.05 | 0.70 | 0.70 | 99 | 1010.0 |
| 20260507004104 | 47 | 224 | 0.0 | 0.0 | 0.00 | 0.69 | 0.69 | 99 | 1009.8 |
| 20260507003600 | 47 | 225 | 0.0 | 0.0 | 0.07 | 0.69 | 0.69 | 99 | 1009.9 |
| 20260507003055 | 47 | 226 | 0.9 | 1.7 | 0.07 | 0.69 | 0.69 | 99 | 1009.8 |
| 20260507002552 | 47 | 223 | 0.0 | 0.0 | 0.00 | 0.68 | 0.68 | 99 | 1009.7 |
| 20260507002047 | 48 | 229 | 0.9 | 1.7 | 0.00 | 0.68 | 0.68 | 99 | 1009.6 |
| 20260507001544 | 48 | 223 | 0.0 | 0.9 | 0.00 | 0.68 | 0.68 | 99 | 1009.6 |
| 20260507001042 | 48 | 224 | 0.0 | 0.0 | 0.00 | 0.68 | 0.68 | 99 | 1009.4 |
| 20260507000538 | 48 | 221 | 0.9 | 0.9 | 0.05 | 0.68 | 0.68 | 99 | 1009.2 |
| 20260507000033 | 48 | 226 | 0.0 | 0.9 | 0.05 | 0.68 | 0.68 | 99 | 1009.2 |
| 20260506235531 | 48 | 224 | 0.0 | 0.0 | 0.00 | 0.67 | 0.67 | 99 | 1009.2 |
| 20260506235027 | 48 | 224 | 0.0 | 0.0 | 0.00 | 0.67 | 0.67 | 99 | 1009.0 |
| 20260506234525 | 48 | 220 | 0.0 | 0.0 | 0.00 | 0.67 | 0.67 | 99 | 1009.0 |
| 20260506234022 | 48 | 221 | 0.0 | 0.0 | 0.00 | 0.67 | 0.67 | 99 | 1009.0 |
| 20260506233518 | 48 | 215 | 0.0 | 0.9 | 0.00 | 0.67 | 0.67 | 99 | 1008.8 |
| 20260506233015 | 48 | 227 | 0.9 | 1.7 | 0.07 | 0.67 | 0.67 | 99 | 1008.9 |
| 20260506232511 | 49 | 205 | 0.0 | 0.0 | 0.07 | 0.67 | 0.67 | 99 | 1008.9 |
| 20260506232007 | 49 | 233 | 0.9 | 1.7 | 0.00 | 0.66 | 0.66 | 99 | 1008.9 |
| 20260506231505 | 49 | 221 | 0.0 | 0.0 | 0.00 | 0.66 | 0.66 | 99 | 1008.8 |
| 20260506231002 | 49 | 224 | 0.9 | 0.9 | 0.00 | 0.66 | 0.66 | 99 | 1008.6 |
| 20260506230458 | 50 | 223 | 0.0 | 0.0 | 0.00 | 0.66 | 0.66 | 99 | 1008.6 |
| 20260506225955 | 50 | 217 | 0.0 | 0.0 | 0.00 | 0.66 | 0.66 | 99 | 1008.6 |
| 20260506225452 | 50 | 223 | 0.0 | 0.0 | 0.00 | 0.66 | 0.66 | 99 | 1008.7 |
| 20260506224948 | 50 | 220 | 0.0 | 0.0 | 0.00 | 0.66 | 0.66 | 99 | 1008.4 |
| 20260506224446 | 51 | 221 | 0.0 | 0.0 | 0.00 | 0.66 | 0.66 | 99 | 1008.2 |
| 20260506223942 | 51 | 233 | 1.7 | 2.6 | 0.00 | 0.66 | 0.66 | 99 | 1008.2 |
| 20260506223438 | 51 | 225 | 0.0 | 0.0 | 0.00 | 0.66 | 0.66 | 99 | 1008.6 |
| 20260506222935 | 52 | 233 | 0.9 | 0.9 | 0.00 | 0.66 | 0.66 | 99 | 1008.2 |
| 20260506222432 | 52 | 237 | 1.7 | 1.7 | 0.00 | 0.66 | 0.66 | 99 | 1008.3 |
| 20260506221929 | 53 | 231 | 0.9 | 1.7 | 0.00 | 0.66 | 0.66 | 99 | 1008.1 |
| 20260506221426 | 53 | 223 | 0.0 | 0.9 | 0.05 | 0.66 | 0.66 | 99 | 1007.8 |
| 20260506220924 | 54 | 220 | 0.0 | 0.0 | 0.24 | 0.66 | 0.66 | 99 | 1007.9 |
| 20260506220419 | 56 | 223 | 0.9 | 0.9 | 0.31 | 0.65 | 0.65 | 99 | 1007.9 |
| 20260506215916 | 58 | 220 | 0.9 | 0.9 | 0.24 | 0.63 | 0.63 | 99 | 1007.8 |
| 20260506215412 | 58 | 220 | 0.0 | 0.0 | 0.12 | 0.61 | 0.61 | 99 | 1007.3 |
| 20260506214908 | 58 | 219 | 0.0 | 0.0 | 0.12 | 0.59 | 0.59 | 99 | 1007.4 |
| 20260506214405 | 59 | 219 | 0.0 | 0.0 | 0.24 | 0.59 | 0.59 | 99 | 1007.4 |
| 20260506213902 | 58 | 219 | 0.0 | 0.0 | 0.24 | 0.58 | 0.58 | 99 | 1007.3 |
| 20260506213400 | 59 | 220 | 0.0 | 0.0 | 0.12 | 0.55 | 0.55 | 99 | 1007.3 |
| 20260506212857 | 59 | 220 | 0.0 | 0.0 | 0.12 | 0.54 | 0.54 | 99 | 1007.5 |
| 20260506212353 | 59 | 220 | 0.0 | 0.0 | 0.12 | 0.53 | 0.53 | 99 | 1007.6 |
| 20260506211848 | 59 | 220 | 0.0 | 0.0 | 0.24 | 0.53 | 0.53 | 99 | 1007.7 |
| 20260506211344 | 59 | 220 | 0.0 | 0.0 | 0.24 | 0.51 | 0.51 | 99 | 1007.6 |
| 20260506210842 | 59 | 224 | 0.0 | 0.0 | 0.19 | 0.49 | 0.49 | 99 | 1007.5 |
| 20260506210338 | 59 | 224 | 0.0 | 0.0 | 0.12 | 0.47 | 0.47 | 99 | 1007.4 |
| 20260506205836 | 59 | 220 | 0.0 | 0.0 | 0.05 | 0.46 | 0.46 | 99 | 1007.5 |
| 20260506205331 | 59 | 219 | 0.9 | 0.9 | 0.00 | 0.45 | 0.45 | 99 | 1007.6 |
| 20260506204828 | 59 | 224 | 0.0 | 0.0 | 0.00 | 0.45 | 0.45 | 99 | 1007.6 |
| 20260506204326 | 59 | 223 | 0.0 | 0.0 | 0.07 | 0.45 | 0.45 | 99 | 1007.5 |
| 20260506203823 | 59 | 221 | 0.0 | 0.0 | 0.07 | 0.45 | 0.45 | 99 | 1007.7 |
| 20260506203320 | 59 | 223 | 0.0 | 0.0 | 0.00 | 0.44 | 0.44 | 99 | 1007.8 |
| 20260506202817 | 59 | 222 | 0.0 | 0.0 | 0.00 | 0.44 | 0.44 | 99 | 1007.6 |
| 20260506202314 | 59 | 222 | 0.0 | 0.0 | 0.05 | 0.44 | 0.44 | 99 | 1007.7 |
| 20260506201810 | 59 | 220 | 0.0 | 0.0 | 0.05 | 0.44 | 0.44 | 99 | 1007.8 |
| 20260506201308 | 59 | 219 | 0.0 | 0.0 | 0.00 | 0.43 | 0.43 | 99 | 1008.1 |
| 20260506200805 | 60 | 219 | 0.0 | 0.0 | 0.00 | 0.43 | 0.43 | 99 | 1008.1 |
| 20260506200301 | 60 | 223 | 0.0 | 0.0 | 0.00 | 0.43 | 0.43 | 99 | 1008.0 |
| 20260506195757 | 60 | 224 | 0.0 | 0.0 | 0.00 | 0.43 | 0.43 | 99 | 1008.0 |
| 20260506195254 | 60 | 223 | 0.0 | 0.0 | 0.07 | 0.43 | 0.43 | 99 | 1008.2 |
| 20260506194751 | 60 | 223 | 0.0 | 0.0 | 0.07 | 0.43 | 0.43 | 99 | 1008.0 |
| 20260506194247 | 60 | 224 | 0.0 | 0.0 | 0.00 | 0.42 | 0.42 | 99 | 1008.3 |
| 20260506193745 | 60 | 224 | 0.0 | 0.0 | 0.00 | 0.42 | 0.42 | 99 | 1008.4 |
| 20260506193242 | 60 | 224 | 0.0 | 0.0 | 0.00 | 0.42 | 0.42 | 99 | 1008.1 |
| 20260506192738 | 59 | 224 | 0.0 | 0.0 | 0.05 | 0.42 | 0.42 | 99 | 1008.6 |
| 20260506192235 | 60 | 224 | 0.0 | 0.0 | 0.05 | 0.42 | 0.42 | 99 | 1008.4 |
| 20260506191732 | 59 | 224 | 0.0 | 0.0 | 0.07 | 0.41 | 0.41 | 99 | 1008.4 |
| 20260506191228 | 59 | 224 | 0.0 | 0.0 | 0.07 | 0.41 | 0.41 | 99 | 1008.7 |
| 20260506190725 | 59 | 224 | 0.0 | 0.0 | 0.12 | 0.41 | 0.41 | 99 | 1008.6 |
| 20260506190222 | 59 | 224 | 0.0 | 0.0 | 0.12 | 0.40 | 0.40 | 99 | 1008.7 |
| 20260506185719 | 59 | 224 | 0.0 | 0.0 | 0.14 | 0.39 | 0.39 | 99 | 1008.7 |
| 20260506185215 | 58 | 224 | 0.0 | 0.0 | 0.12 | 0.38 | 0.38 | 99 | 1008.8 |
| 20260506184713 | 58 | 226 | 0.0 | 0.0 | 0.17 | 0.37 | 0.37 | 99 | 1008.8 |
| 20260506184210 | 58 | 226 | 0.0 | 0.9 | 0.19 | 0.36 | 0.36 | 99 | 1008.8 |
| 20260506183707 | 58 | 224 | 0.0 | 0.0 | 0.19 | 0.34 | 0.34 | 99 | 1008.7 |
| 20260506183202 | 58 | 222 | 0.0 | 0.0 | 0.17 | 0.33 | 0.33 | 99 | 1008.6 |
| 20260506182700 | 58 | 221 | 0.0 | 0.0 | 0.19 | 0.32 | 0.32 | 99 | 1008.6 |
| 20260506182157 | 58 | 218 | 0.0 | 0.0 | 0.19 | 0.30 | 0.30 | 99 | 1008.7 |
| 20260506181655 | 58 | 225 | 0.0 | 0.0 | 0.24 | 0.29 | 0.29 | 99 | 1008.9 |
| 20260506181152 | 57 | 220 | 0.0 | 0.0 | 0.19 | 0.27 | 0.27 | 99 | 1009.0 |
| 20260506180649 | 57 | 214 | 0.0 | 0.0 | 0.19 | 0.25 | 0.25 | 99 | 1009.2 |
| 20260506180145 | 57 | 205 | 0.0 | 0.0 | 0.19 | 0.23 | 0.23 | 99 | 1009.3 |
| 20260506175642 | 57 | 215 | 0.9 | 0.9 | 0.17 | 0.22 | 0.22 | 99 | 1009.3 |
| 20260506175139 | 57 | 212 | 0.0 | 0.0 | 0.12 | 0.20 | 0.20 | 99 | 1009.3 |
| 20260506174631 | 57 | 202 | 0.0 | 0.0 | 0.19 | 0.19 | 0.19 | 99 | 1009.4 |
| 20260506174127 | 57 | 220 | 0.0 | 0.0 | 0.17 | 0.18 | 0.18 | 99 | 1009.6 |
| 20260506173625 | 57 | 221 | 0.9 | 1.7 | 0.12 | 0.17 | 0.17 | 99 | 1009.5 |
| 20260506173121 | 57 | 215 | 0.0 | 0.0 | 0.14 | 0.15 | 0.15 | 99 | 1009.6 |
| 20260506172619 | 57 | 217 | 0.0 | 0.0 | 0.19 | 0.15 | 0.15 | 99 | 1009.5 |
| 20260506172115 | 57 | 221 | 0.0 | 0.0 | 0.05 | 0.13 | 0.13 | 99 | 1009.5 |
| 20260506171613 | 57 | 220 | 0.0 | 0.0 | 0.07 | 0.12 | 0.12 | 99 | 1009.5 |
| 20260506171110 | 57 | 211 | 0.0 | 0.0 | 0.12 | 0.12 | 0.12 | 99 | 1009.9 |
| 20260506170607 | 57 | 206 | 0.0 | 0.0 | 0.12 | 0.11 | 0.11 | 99 | 1009.9 |